sensor_id;sensor_type;location;lat;lon;timestamp;P1;durP1;ratioP1;P2;durP2;ratioP2
55013;SDS011;40916;51.632;5.552;2023-01-31T00:01:35;2.3;;;8.3;;
55013;SDS011;40916;51.632;5.552;2023-01-31T00:06:35;2.4;;;12.7;;
55013;SDS011;40916;51.632;5.552;2023-01-31T00:11:35;3.6;;;23.9;;
55013;SDS011;40916;51.632;5.552;2023-01-31T00:16:35;2.8;;;19.7;;
55013;SDS011;40916;51.632;5.552;2023-01-31T00:21:34;3.9;;;27.3;;
55013;SDS011;40916;51.632;5.552;2023-01-31T00:26:34;3.8;;;22.1;;
55013;SDS011;40916;51.632;5.552;2023-01-31T00:31:34;3.7;;;21.2;;
55013;SDS011;40916;51.632;5.552;2023-01-31T00:36:34;1.9;;;11.2;;
55013;SDS011;40916;51.632;5.552;2023-01-31T00:41:35;2;;;11.6;;
55013;SDS011;40916;51.632;5.552;2023-01-31T00:46:34;3.3;;;24.3;;
55013;SDS011;40916;51.632;5.552;2023-01-31T00:51:34;2.3;;;18.7;;
55013;SDS011;40916;51.632;5.552;2023-01-31T00:56:34;4.2;;;20.8;;
55013;SDS011;40916;51.632;5.552;2023-01-31T01:01:35;3.2;;;28.7;;
55013;SDS011;40916;51.632;5.552;2023-01-31T01:06:37;2.3;;;9.4;;
55013;SDS011;40916;51.632;5.552;2023-01-31T01:11:34;1.9;;;8.1;;
55013;SDS011;40916;51.632;5.552;2023-01-31T01:16:35;3.8;;;24.3;;
55013;SDS011;40916;51.632;5.552;2023-01-31T01:21:34;2.4;;;19.2;;
55013;SDS011;40916;51.632;5.552;2023-01-31T01:26:34;3.8;;;21.6;;
55013;SDS011;40916;51.632;5.552;2023-01-31T01:31:35;4.5;;;27.6;;
55013;SDS011;40916;51.632;5.552;2023-01-31T01:36:35;3.4;;;18;;
55013;SDS011;40916;51.632;5.552;2023-01-31T01:41:34;4.3;;;25.5;;
55013;SDS011;40916;51.632;5.552;2023-01-31T01:46:35;4.9;;;31.1;;
55013;SDS011;40916;51.632;5.552;2023-01-31T01:51:34;3.7;;;21.2;;
55013;SDS011;40916;51.632;5.552;2023-01-31T01:56:35;4;;;31.6;;
55013;SDS011;40916;51.632;5.552;2023-01-31T02:01:35;5;;;28.4;;
55013;SDS011;40916;51.632;5.552;2023-01-31T02:06:34;4.9;;;28.5;;
55013;SDS011;40916;51.632;5.552;2023-01-31T02:11:34;5.5;;;24.9;;
55013;SDS011;40916;51.632;5.552;2023-01-31T02:16:34;4.2;;;23.1;;
55013;SDS011;40916;51.632;5.552;2023-01-31T02:21:41;6.5;;;34.5;;
55013;SDS011;40916;51.632;5.552;2023-01-31T02:26:42;5.6;;;33.5;;
55013;SDS011;40916;51.632;5.552;2023-01-31T02:31:47;5.4;;;28.5;;
55013;SDS011;40916;51.632;5.552;2023-01-31T02:36:37;6.1;;;23.6;;
55013;SDS011;40916;51.632;5.552;2023-01-31T02:41:35;5.4;;;28.1;;
55013;SDS011;40916;51.632;5.552;2023-01-31T02:46:35;6.8;;;30.2;;
55013;SDS011;40916;51.632;5.552;2023-01-31T02:51:35;6.8;;;27.4;;
55013;SDS011;40916;51.632;5.552;2023-01-31T02:56:35;8.9;;;35.9;;
55013;SDS011;40916;51.632;5.552;2023-01-31T03:01:35;6.4;;;23.3;;
55013;SDS011;40916;51.632;5.552;2023-01-31T03:06:51;6.9;;;34.6;;
55013;SDS011;40916;51.632;5.552;2023-01-31T03:11:35;5.1;;;23;;
55013;SDS011;40916;51.632;5.552;2023-01-31T03:16:35;4.9;;;12.6;;
55013;SDS011;40916;51.632;5.552;2023-01-31T03:21:35;6.8;;;34.8;;
55013;SDS011;40916;51.632;5.552;2023-01-31T03:26:34;8.1;;;28.5;;
55013;SDS011;40916;51.632;5.552;2023-01-31T03:31:35;5.3;;;23.6;;
55013;SDS011;40916;51.632;5.552;2023-01-31T03:36:35;7.9;;;29.5;;
55013;SDS011;40916;51.632;5.552;2023-01-31T03:41:36;6.7;;;22;;
55013;SDS011;40916;51.632;5.552;2023-01-31T03:46:35;8.3;;;33;;
55013;SDS011;40916;51.632;5.552;2023-01-31T03:51:35;8.8;;;36.6;;
55013;SDS011;40916;51.632;5.552;2023-01-31T03:56:35;6.8;;;24.8;;
55013;SDS011;40916;51.632;5.552;2023-01-31T04:01:34;8.5;;;38.2;;
55013;SDS011;40916;51.632;5.552;2023-01-31T04:06:34;7.9;;;21.9;;
55013;SDS011;40916;51.632;5.552;2023-01-31T04:11:35;8;;;32;;
55013;SDS011;40916;51.632;5.552;2023-01-31T04:16:34;7;;;26.2;;
55013;SDS011;40916;51.632;5.552;2023-01-31T04:21:34;8.8;;;30.9;;
55013;SDS011;40916;51.632;5.552;2023-01-31T04:26:34;9.7;;;30.9;;
55013;SDS011;40916;51.632;5.552;2023-01-31T04:31:34;11.9;;;39.8;;
55013;SDS011;40916;51.632;5.552;2023-01-31T04:36:34;4.5;;;14.5;;
55013;SDS011;40916;51.632;5.552;2023-01-31T04:41:34;7.7;;;23.8;;
55013;SDS011;40916;51.632;5.552;2023-01-31T04:46:34;8.8;;;24;;
55013;SDS011;40916;51.632;5.552;2023-01-31T04:51:34;6.6;;;21.6;;
55013;SDS011;40916;51.632;5.552;2023-01-31T04:56:34;12.8;;;35.9;;
55013;SDS011;40916;51.632;5.552;2023-01-31T05:01:34;6.9;;;26.4;;
55013;SDS011;40916;51.632;5.552;2023-01-31T05:06:34;6.6;;;26.5;;
55013;SDS011;40916;51.632;5.552;2023-01-31T05:11:34;12.1;;;33.6;;
55013;SDS011;40916;51.632;5.552;2023-01-31T05:16:34;10.9;;;35.4;;
55013;SDS011;40916;51.632;5.552;2023-01-31T05:21:34;8.7;;;34.8;;
55013;SDS011;40916;51.632;5.552;2023-01-31T05:26:34;7.3;;;23.4;;
55013;SDS011;40916;51.632;5.552;2023-01-31T05:31:34;9.2;;;34;;
55013;SDS011;40916;51.632;5.552;2023-01-31T05:36:34;10.3;;;32.8;;
55013;SDS011;40916;51.632;5.552;2023-01-31T05:41:34;6.4;;;31.5;;
55013;SDS011;40916;51.632;5.552;2023-01-31T05:46:34;10.3;;;31;;
55013;SDS011;40916;51.632;5.552;2023-01-31T05:51:34;6.2;;;19;;
55013;SDS011;40916;51.632;5.552;2023-01-31T05:56:34;8.7;;;32.3;;
55013;SDS011;40916;51.632;5.552;2023-01-31T06:01:34;10.7;;;35.5;;
55013;SDS011;40916;51.632;5.552;2023-01-31T06:06:34;6.5;;;15.4;;
55013;SDS011;40916;51.632;5.552;2023-01-31T06:11:34;8.8;;;18.3;;
55013;SDS011;40916;51.632;5.552;2023-01-31T06:16:34;7.5;;;21.9;;
55013;SDS011;40916;51.632;5.552;2023-01-31T06:21:34;10;;;36.1;;
55013;SDS011;40916;51.632;5.552;2023-01-31T06:26:34;10.5;;;33.8;;
55013;SDS011;40916;51.632;5.552;2023-01-31T06:31:34;10.5;;;29;;
55013;SDS011;40916;51.632;5.552;2023-01-31T06:36:34;7.5;;;19.2;;
55013;SDS011;40916;51.632;5.552;2023-01-31T06:41:34;8.9;;;23.3;;
55013;SDS011;40916;51.632;5.552;2023-01-31T06:46:34;10.6;;;40.8;;
55013;SDS011;40916;51.632;5.552;2023-01-31T06:51:34;7.4;;;24.6;;
55013;SDS011;40916;51.632;5.552;2023-01-31T06:56:34;8;;;25.5;;
55013;SDS011;40916;51.632;5.552;2023-01-31T07:01:34;8.5;;;27.3;;
55013;SDS011;40916;51.632;5.552;2023-01-31T07:06:34;8.8;;;20.3;;
55013;SDS011;40916;51.632;5.552;2023-01-31T07:11:35;9.5;;;31.3;;
55013;SDS011;40916;51.632;5.552;2023-01-31T07:16:34;7.6;;;28.6;;
55013;SDS011;40916;51.632;5.552;2023-01-31T07:21:34;8.9;;;25.9;;
55013;SDS011;40916;51.632;5.552;2023-01-31T07:26:34;8;;;24.2;;
55013;SDS011;40916;51.632;5.552;2023-01-31T07:31:34;5.1;;;12;;
55013;SDS011;40916;51.632;5.552;2023-01-31T10:29:35;5.2;;;12.7;;
55013;SDS011;40916;51.632;5.552;2023-01-31T10:34:35;7.8;;;20.7;;
55013;SDS011;40916;51.632;5.552;2023-01-31T10:39:35;6.5;;;19.5;;
55013;SDS011;40916;51.632;5.552;2023-01-31T10:44:39;7.4;;;20.4;;
55013;SDS011;40916;51.632;5.552;2023-01-31T10:49:34;8.2;;;21.9;;
55013;SDS011;40916;51.632;5.552;2023-01-31T10:54:38;7;;;21.9;;
55013;SDS011;40916;51.632;5.552;2023-01-31T10:59:35;12.9;;;25;;
55013;SDS011;40916;51.632;5.552;2023-01-31T11:04:35;7.1;;;15.2;;
55013;SDS011;40916;51.632;5.552;2023-01-31T11:09:36;10.3;;;26.5;;
55013;SDS011;40916;51.632;5.552;2023-01-31T11:14:34;12.8;;;34.4;;
55013;SDS011;40916;51.632;5.552;2023-01-31T11:19:35;9.7;;;19.4;;
55013;SDS011;40916;51.632;5.552;2023-01-31T11:24:35;10.9;;;22.2;;
55013;SDS011;40916;51.632;5.552;2023-01-31T11:29:35;8.6;;;17.3;;
55013;SDS011;40916;51.632;5.552;2023-01-31T11:34:34;10.4;;;27;;
55013;SDS011;40916;51.632;5.552;2023-01-31T11:39:35;8.9;;;18.9;;
55013;SDS011;40916;51.632;5.552;2023-01-31T11:44:34;8.9;;;18.1;;
55013;SDS011;40916;51.632;5.552;2023-01-31T11:49:34;9.7;;;20.8;;
55013;SDS011;40916;51.632;5.552;2023-01-31T11:54:34;9.3;;;19.1;;
55013;SDS011;40916;51.632;5.552;2023-01-31T11:59:34;9.8;;;24.2;;
55013;SDS011;40916;51.632;5.552;2023-01-31T12:04:38;12.6;;;27.8;;
55013;SDS011;40916;51.632;5.552;2023-01-31T12:09:39;10.8;;;26.9;;
55013;SDS011;40916;51.632;5.552;2023-01-31T12:14:35;7.7;;;14.8;;
55013;SDS011;40916;51.632;5.552;2023-01-31T12:19:37;10;;;28;;
55013;SDS011;40916;51.632;5.552;2023-01-31T12:24:37;7.7;;;27.3;;
55013;SDS011;40916;51.632;5.552;2023-01-31T12:29:40;6.9;;;24.2;;
55013;SDS011;40916;51.632;5.552;2023-01-31T12:34:39;7.5;;;15.3;;
55013;SDS011;40916;51.632;5.552;2023-01-31T12:39:41;6.7;;;18.3;;
55013;SDS011;40916;51.632;5.552;2023-01-31T12:44:37;7.1;;;18.7;;
55013;SDS011;40916;51.632;5.552;2023-01-31T12:49:39;5.1;;;10.9;;
55013;SDS011;40916;51.632;5.552;2023-01-31T12:54:38;6.5;;;16.8;;
55013;SDS011;40916;51.632;5.552;2023-01-31T12:59:38;5.8;;;23.2;;
55013;SDS011;40916;51.632;5.552;2023-01-31T13:04:35;4.4;;;12.2;;
55013;SDS011;40916;51.632;5.552;2023-01-31T13:09:34;3;;;7.2;;
55013;SDS011;40916;51.632;5.552;2023-01-31T13:14:35;4;;;10.6;;
55013;SDS011;40916;51.632;5.552;2023-01-31T13:19:36;4.4;;;9;;
55013;SDS011;40916;51.632;5.552;2023-01-31T13:24:35;5.1;;;18.1;;
55013;SDS011;40916;51.632;5.552;2023-01-31T13:29:36;3;;;10.2;;
55013;SDS011;40916;51.632;5.552;2023-01-31T13:34:36;3.5;;;13.2;;
55013;SDS011;40916;51.632;5.552;2023-01-31T13:39:34;3.5;;;9.1;;
55013;SDS011;40916;51.632;5.552;2023-01-31T13:44:34;3.6;;;14.6;;
55013;SDS011;40916;51.632;5.552;2023-01-31T13:49:35;3.1;;;9.3;;
55013;SDS011;40916;51.632;5.552;2023-01-31T13:54:34;3.3;;;9.3;;
55013;SDS011;40916;51.632;5.552;2023-01-31T13:59:34;4.2;;;10;;
55013;SDS011;40916;51.632;5.552;2023-01-31T14:04:34;3;;;8.7;;
55013;SDS011;40916;51.632;5.552;2023-01-31T14:09:34;4;;;16.3;;
55013;SDS011;40916;51.632;5.552;2023-01-31T14:14:36;4.1;;;12.1;;
55013;SDS011;40916;51.632;5.552;2023-01-31T14:24:54;2.5;;;8;;
55013;SDS011;40916;51.632;5.552;2023-01-31T14:29:34;3.4;;;11.9;;
55013;SDS011;40916;51.632;5.552;2023-01-31T14:34:34;4.3;;;18.3;;
55013;SDS011;40916;51.632;5.552;2023-01-31T14:39:37;2.1;;;7.7;;
55013;SDS011;40916;51.632;5.552;2023-01-31T14:44:36;5;;;12.6;;
55013;SDS011;40916;51.632;5.552;2023-01-31T14:49:42;4.7;;;25.9;;
55013;SDS011;40916;51.632;5.552;2023-01-31T14:54:38;3.9;;;25;;
55013;SDS011;40916;51.632;5.552;2023-01-31T14:59:34;3.8;;;23.5;;
55013;SDS011;40916;51.632;5.552;2023-01-31T15:04:34;4.1;;;14;;
55013;SDS011;40916;51.632;5.552;2023-01-31T15:09:35;3.9;;;21.4;;
55013;SDS011;40916;51.632;5.552;2023-01-31T15:14:34;3.2;;;13;;
55013;SDS011;40916;51.632;5.552;2023-01-31T15:19:38;3.4;;;20.7;;
55013;SDS011;40916;51.632;5.552;2023-01-31T15:24:34;2.3;;;8.2;;
55013;SDS011;40916;51.632;5.552;2023-01-31T15:29:37;3.8;;;23.3;;
55013;SDS011;40916;51.632;5.552;2023-01-31T15:34:38;3.9;;;21.3;;
55013;SDS011;40916;51.632;5.552;2023-01-31T15:39:35;4.3;;;17.5;;
55013;SDS011;40916;51.632;5.552;2023-01-31T15:44:34;3.8;;;23.7;;
55013;SDS011;40916;51.632;5.552;2023-01-31T15:49:40;2.4;;;13.5;;
55013;SDS011;40916;51.632;5.552;2023-01-31T15:54:34;3.2;;;16.9;;
55013;SDS011;40916;51.632;5.552;2023-01-31T15:59:34;2.5;;;9.2;;
55013;SDS011;40916;51.632;5.552;2023-01-31T16:04:34;2.4;;;8.4;;
55013;SDS011;40916;51.632;5.552;2023-01-31T16:09:34;2.6;;;11.6;;
55013;SDS011;40916;51.632;5.552;2023-01-31T16:14:34;3.7;;;11.9;;
55013;SDS011;40916;51.632;5.552;2023-01-31T16:19:34;2.7;;;12.7;;
55013;SDS011;40916;51.632;5.552;2023-01-31T16:24:34;5.2;;;20.3;;
55013;SDS011;40916;51.632;5.552;2023-01-31T16:29:36;2.7;;;18.2;;
55013;SDS011;40916;51.632;5.552;2023-01-31T16:34:34;4;;;20.4;;
55013;SDS011;40916;51.632;5.552;2023-01-31T16:39:35;3.7;;;16.5;;
55013;SDS011;40916;51.632;5.552;2023-01-31T16:44:34;3.4;;;19;;
55013;SDS011;40916;51.632;5.552;2023-01-31T16:49:34;2.9;;;13.2;;
55013;SDS011;40916;51.632;5.552;2023-01-31T16:54:41;3.8;;;22.5;;
55013;SDS011;40916;51.632;5.552;2023-01-31T16:59:38;3;;;16.7;;
55013;SDS011;40916;51.632;5.552;2023-01-31T17:04:35;2.6;;;13.1;;
55013;SDS011;40916;51.632;5.552;2023-01-31T17:09:33;2.9;;;16.9;;
55013;SDS011;40916;51.632;5.552;2023-01-31T17:14:33;2.6;;;13.4;;
55013;SDS011;40916;51.632;5.552;2023-01-31T17:19:34;2.9;;;17.2;;
55013;SDS011;40916;51.632;5.552;2023-01-31T17:24:33;2.5;;;14;;
55013;SDS011;40916;51.632;5.552;2023-01-31T17:29:33;3.3;;;18.5;;
55013;SDS011;40916;51.632;5.552;2023-01-31T17:34:33;2.5;;;14.8;;
55013;SDS011;40916;51.632;5.552;2023-01-31T17:39:33;4.5;;;25;;
55013;SDS011;40916;51.632;5.552;2023-01-31T17:44:33;5.5;;;22;;
55013;SDS011;40916;51.632;5.552;2023-01-31T17:49:33;2.4;;;15;;
55013;SDS011;40916;51.632;5.552;2023-01-31T17:54:33;3;;;13;;
55013;SDS011;40916;51.632;5.552;2023-01-31T17:59:33;2.6;;;9.4;;
55013;SDS011;40916;51.632;5.552;2023-01-31T18:04:33;3.8;;;20.7;;
55013;SDS011;40916;51.632;5.552;2023-01-31T18:09:33;4.2;;;22.5;;
55013;SDS011;40916;51.632;5.552;2023-01-31T18:14:33;3.3;;;14.8;;
55013;SDS011;40916;51.632;5.552;2023-01-31T18:19:33;4;;;20.1;;
55013;SDS011;40916;51.632;5.552;2023-01-31T18:24:33;4.1;;;19;;
55013;SDS011;40916;51.632;5.552;2023-01-31T18:29:33;3.5;;;20.4;;
55013;SDS011;40916;51.632;5.552;2023-01-31T18:34:33;3.5;;;15.8;;
55013;SDS011;40916;51.632;5.552;2023-01-31T18:39:33;4;;;17.4;;
55013;SDS011;40916;51.632;5.552;2023-01-31T18:44:33;4;;;22.5;;
55013;SDS011;40916;51.632;5.552;2023-01-31T18:49:33;3.3;;;15.3;;
55013;SDS011;40916;51.632;5.552;2023-01-31T18:54:34;3.6;;;16.9;;
55013;SDS011;40916;51.632;5.552;2023-01-31T18:59:33;4.1;;;16.7;;
55013;SDS011;40916;51.632;5.552;2023-01-31T19:04:33;3.3;;;12.9;;
55013;SDS011;40916;51.632;5.552;2023-01-31T19:09:33;4.5;;;20.5;;
55013;SDS011;40916;51.632;5.552;2023-01-31T19:14:33;4;;;15.4;;
55013;SDS011;40916;51.632;5.552;2023-01-31T19:19:33;3.8;;;21.9;;
55013;SDS011;40916;51.632;5.552;2023-01-31T19:24:33;5.2;;;27.7;;
55013;SDS011;40916;51.632;5.552;2023-01-31T19:29:33;3.9;;;18.2;;
55013;SDS011;40916;51.632;5.552;2023-01-31T19:34:33;2.6;;;10.7;;
55013;SDS011;40916;51.632;5.552;2023-01-31T19:39:33;2.8;;;22.5;;
55013;SDS011;40916;51.632;5.552;2023-01-31T19:44:33;3.6;;;17;;
55013;SDS011;40916;51.632;5.552;2023-01-31T19:49:33;3.4;;;20.7;;
55013;SDS011;40916;51.632;5.552;2023-01-31T19:54:33;4.7;;;19.7;;
55013;SDS011;40916;51.632;5.552;2023-01-31T19:59:33;4.5;;;23.7;;
55013;SDS011;40916;51.632;5.552;2023-01-31T20:04:33;4.5;;;20.1;;
55013;SDS011;40916;51.632;5.552;2023-01-31T20:09:33;5.7;;;31.1;;
55013;SDS011;40916;51.632;5.552;2023-01-31T20:14:33;4.6;;;19.3;;
55013;SDS011;40916;51.632;5.552;2023-01-31T20:19:33;3.9;;;23.5;;
55013;SDS011;40916;51.632;5.552;2023-01-31T20:24:33;3.2;;;16.9;;
55013;SDS011;40916;51.632;5.552;2023-01-31T20:29:33;5.7;;;30.2;;
55013;SDS011;40916;51.632;5.552;2023-01-31T20:34:33;6.3;;;28.3;;
55013;SDS011;40916;51.632;5.552;2023-01-31T20:39:33;5.6;;;28.8;;
55013;SDS011;40916;51.632;5.552;2023-01-31T20:44:33;6.1;;;33.8;;
55013;SDS011;40916;51.632;5.552;2023-01-31T20:49:33;6.1;;;35.8;;
55013;SDS011;40916;51.632;5.552;2023-01-31T20:54:33;3.9;;;17.3;;
55013;SDS011;40916;51.632;5.552;2023-01-31T20:59:33;3.6;;;18.1;;
55013;SDS011;40916;51.632;5.552;2023-01-31T21:04:33;3.1;;;17.1;;
55013;SDS011;40916;51.632;5.552;2023-01-31T21:09:33;4.4;;;20.7;;
55013;SDS011;40916;51.632;5.552;2023-01-31T21:14:33;3.7;;;11.1;;
55013;SDS011;40916;51.632;5.552;2023-01-31T21:19:33;4.3;;;20.1;;
55013;SDS011;40916;51.632;5.552;2023-01-31T21:24:33;4.3;;;19.8;;
55013;SDS011;40916;51.632;5.552;2023-01-31T21:29:33;3.6;;;10.8;;
55013;SDS011;40916;51.632;5.552;2023-01-31T21:34:33;2.1;;;7.7;;
55013;SDS011;40916;51.632;5.552;2023-01-31T21:39:33;2.6;;;9.3;;
55013;SDS011;40916;51.632;5.552;2023-01-31T21:44:33;2.8;;;12.2;;
55013;SDS011;40916;51.632;5.552;2023-01-31T21:49:33;2.2;;;7.2;;
55013;SDS011;40916;51.632;5.552;2023-01-31T21:54:33;3.6;;;28;;
55013;SDS011;40916;51.632;5.552;2023-01-31T21:59:33;3.5;;;25;;
55013;SDS011;40916;51.632;5.552;2023-01-31T22:04:33;2.8;;;12.3;;
55013;SDS011;40916;51.632;5.552;2023-01-31T22:09:33;2.3;;;12;;
55013;SDS011;40916;51.632;5.552;2023-01-31T22:14:33;3.2;;;17.8;;
55013;SDS011;40916;51.632;5.552;2023-01-31T22:19:33;2.2;;;14.2;;
55013;SDS011;40916;51.632;5.552;2023-01-31T22:24:33;2.5;;;18.1;;
55013;SDS011;40916;51.632;5.552;2023-01-31T22:29:33;4.5;;;27.7;;
55013;SDS011;40916;51.632;5.552;2023-01-31T22:34:33;2.6;;;14.7;;
55013;SDS011;40916;51.632;5.552;2023-01-31T22:39:33;2.1;;;17.2;;
55013;SDS011;40916;51.632;5.552;2023-01-31T22:44:33;2.2;;;10.8;;
55013;SDS011;40916;51.632;5.552;2023-01-31T22:49:33;2.9;;;22.5;;
55013;SDS011;40916;51.632;5.552;2023-01-31T22:54:33;3.1;;;18.7;;
55013;SDS011;40916;51.632;5.552;2023-01-31T22:59:33;3;;;14.8;;
55013;SDS011;40916;51.632;5.552;2023-01-31T23:04:33;3.1;;;16.8;;
55013;SDS011;40916;51.632;5.552;2023-01-31T23:09:33;3.4;;;20.3;;
55013;SDS011;40916;51.632;5.552;2023-01-31T23:14:33;3.5;;;19.8;;
55013;SDS011;40916;51.632;5.552;2023-01-31T23:19:33;4.5;;;19.5;;
55013;SDS011;40916;51.632;5.552;2023-01-31T23:24:33;2.3;;;8.8;;
55013;SDS011;40916;51.632;5.552;2023-01-31T23:29:33;1.6;;;6.4;;
55013;SDS011;40916;51.632;5.552;2023-01-31T23:34:33;3.3;;;18.8;;
55013;SDS011;40916;51.632;5.552;2023-01-31T23:39:33;2;;;9.7;;
55013;SDS011;40916;51.632;5.552;2023-01-31T23:44:33;3;;;11.3;;
55013;SDS011;40916;51.632;5.552;2023-01-31T23:49:33;2.7;;;11.1;;
55013;SDS011;40916;51.632;5.552;2023-01-31T23:54:33;2.1;;;7.4;;
55013;SDS011;40916;51.632;5.552;2023-01-31T23:59:33;2.3;;;10.7;;
